createdAt,value
2022-11-05T00:02:12.652Z,95135.84
2022-11-05T00:05:00.036Z,95129.63
2022-11-05T00:07:51.194Z,95118.84
2022-11-05T00:10:23.426Z,95129.44
2022-11-05T00:13:10.970Z,95125.81
2022-11-05T00:15:57.316Z,95054.88
2022-11-05T00:18:26.261Z,95137.19
2022-11-05T00:20:56.273Z,95136.16
2022-11-05T00:23:41.883Z,95128.97
2022-11-05T00:26:12.124Z,95124.25
2022-11-05T00:28:44.123Z,95123.75
2022-11-05T00:31:14.764Z,95126.44
2022-11-05T00:33:44.890Z,95121.31
2022-11-05T00:36:14.783Z,95113.78
2022-11-05T00:38:43.361Z,95120.50
2022-11-05T00:41:11.699Z,94980.59
2022-11-05T00:43:57.519Z,95069.44
2022-11-05T00:46:25.984Z,95137.09
2022-11-05T00:49:11.890Z,95126.97
2022-11-05T00:51:41.883Z,95140.38
2022-11-05T00:54:10.600Z,95134.41
2022-11-05T00:56:39.286Z,95133.63
2022-11-05T00:59:07.963Z,95132.06
2022-11-05T01:01:36.497Z,95141.41
2022-11-05T01:04:05.272Z,95144.47
2022-11-05T01:06:33.811Z,95132.06
2022-11-05T01:09:03.782Z,95136.16
2022-11-05T01:11:35.300Z,95130.81
2022-11-05T01:14:05.294Z,95130.31
2022-11-05T01:16:34.295Z,95109.41
2022-11-05T01:19:03.490Z,95132.44
2022-11-05T01:21:32.114Z,95129.63
2022-11-05T01:24:00.662Z,95120.38
2022-11-05T01:26:30.434Z,95118.34
2022-11-05T01:29:01.110Z,95118.28
2022-11-05T01:31:30.016Z,95119.28
2022-11-05T01:33:58.626Z,95116.28
2022-11-05T01:36:27.231Z,95107.88
2022-11-05T01:38:55.701Z,95099.72
2022-11-05T01:41:24.120Z,95093.66
2022-11-05T01:43:56.601Z,95084.34
2022-11-05T01:46:29.748Z,94951.63
2022-11-05T01:49:03.546Z,95082.19
2022-11-05T01:51:32.402Z,95081.22
2022-11-05T01:54:03.685Z,95085.03
2022-11-05T01:56:35.687Z,95087.44
2022-11-05T01:59:12.340Z,95095.03
2022-11-05T02:01:40.742Z,95091.88
2022-11-05T02:04:13.257Z,95099.66
2022-11-05T02:06:46.494Z,95089.28
2022-11-05T02:09:19.331Z,95088.72
2022-11-05T02:11:48.777Z,95086.00
2022-11-05T02:14:21.588Z,95078.41
2022-11-05T02:16:54.707Z,95067.44
2022-11-05T02:19:52.776Z,95076.06
2022-11-05T02:22:39.473Z,95071.53
2022-11-05T02:25:28.980Z,95072.69
2022-11-05T02:28:15.010Z,95065.34
2022-11-05T02:30:49.851Z,95068.53
2022-11-05T02:33:28.787Z,95072.00
2022-11-05T02:36:09.079Z,95031.03
2022-11-05T02:38:42.211Z,95076.25
2022-11-05T02:41:19.899Z,95060.63
2022-11-05T02:43:58.676Z,95069.06
2022-11-05T02:46:36.726Z,95078.94
2022-11-05T02:49:15.885Z,95075.69
2022-11-05T02:51:53.641Z,95072.50
2022-11-05T02:54:28.093Z,95072.13
2022-11-05T02:57:00.446Z,95080.13
2022-11-05T02:59:28.645Z,95084.69
2022-11-05T03:02:00.282Z,95065.91
2022-11-05T03:04:29.590Z,95082.44
2022-11-05T03:07:18.849Z,95077.19
2022-11-05T03:10:10.776Z,95084.19
2022-11-05T03:12:50.023Z,95085.25
2022-11-05T03:15:27.949Z,95081.41
2022-11-05T03:18:05.576Z,95079.53
2022-11-05T03:20:40.155Z,95083.84
2022-11-05T03:23:13.939Z,95019.13
2022-11-05T03:25:48.103Z,95076.53
2022-11-05T03:28:18.481Z,95077.44
2022-11-05T03:30:49.431Z,95077.78
2022-11-05T03:33:23.161Z,95063.84
2022-11-05T03:35:55.101Z,95074.97
2022-11-05T03:38:28.260Z,95047.41
2022-11-05T03:40:58.828Z,95069.56
2022-11-05T03:43:31.528Z,95072.16
2022-11-05T03:46:04.431Z,95068.72
2022-11-05T03:48:40.017Z,95056.69
2022-11-05T03:51:14.122Z,95068.09
2022-11-05T03:53:47.679Z,95062.50
2022-11-05T03:56:22.359Z,95048.66
2022-11-05T03:58:56.035Z,95070.88
2022-11-05T04:01:27.147Z,95066.78
2022-11-05T04:03:57.033Z,95073.81
2022-11-05T04:06:42.898Z,95087.97
2022-11-05T04:09:29.351Z,95072.47
2022-11-05T04:12:14.835Z,95082.00
2022-11-05T04:14:43.202Z,95079.78
2022-11-05T04:17:10.526Z,95089.72
2022-11-05T04:19:59.192Z,95089.72
2022-11-05T04:22:46.585Z,95090.94
2022-11-05T04:25:16.031Z,95089.13
2022-11-05T04:27:44.874Z,95083.44
2022-11-05T04:30:19.676Z,95090.94
2022-11-05T04:33:02.557Z,95096.25
2022-11-05T04:35:34.516Z,95097.13
2022-11-05T04:38:03.212Z,95095.06
2022-11-05T04:40:31.976Z,95002.72
2022-11-05T04:43:00.451Z,95098.25
2022-11-05T04:45:30.805Z,95044.53
2022-11-05T04:47:59.084Z,95103.16
2022-11-05T04:50:27.596Z,95102.13
2022-11-05T04:52:57.342Z,95105.31
2022-11-05T04:55:25.787Z,95064.47
2022-11-05T04:57:55.524Z,95113.13
2022-11-05T05:00:25.013Z,95114.25
2022-11-05T05:02:53.545Z,95116.44
2022-11-05T05:05:23.205Z,95130.75
2022-11-05T05:07:51.696Z,95109.13
2022-11-05T05:10:21.413Z,95128.03
2022-11-05T05:12:49.713Z,95139.47
2022-11-05T05:15:18.054Z,95140.47
2022-11-05T05:17:51.067Z,95150.06
2022-11-05T05:20:36.577Z,95145.84
2022-11-05T05:23:05.382Z,95152.41
2022-11-05T05:25:34.967Z,95163.00
2022-11-05T05:28:03.238Z,95136.38
2022-11-05T05:30:31.558Z,95149.34
2022-11-05T05:33:04.019Z,95163.84
2022-11-05T05:35:32.420Z,95166.53
2022-11-05T05:38:00.603Z,95168.66
2022-11-05T05:40:28.839Z,95175.25
2022-11-05T05:42:58.508Z,95173.63
2022-11-05T05:45:26.781Z,95167.00
2022-11-05T05:47:57.010Z,95181.06
2022-11-05T05:50:25.297Z,95167.34
2022-11-05T05:52:53.705Z,95177.34
2022-11-05T05:55:21.995Z,95188.00
2022-11-05T05:57:50.286Z,95185.91
2022-11-05T06:00:20.137Z,95195.47
2022-11-05T06:02:48.516Z,95190.69
2022-11-05T06:05:17.165Z,95192.66
2022-11-05T06:07:45.393Z,95184.84
2022-11-05T06:10:13.703Z,95184.28
2022-11-05T06:12:42.006Z,95194.94
2022-11-05T06:15:10.977Z,95199.25
2022-11-05T06:17:40.585Z,95207.50
2022-11-05T06:20:10.045Z,95194.75
2022-11-05T06:22:38.297Z,95202.00
2022-11-05T06:25:07.829Z,95201.34
2022-11-05T06:27:39.631Z,95188.22
2022-11-05T06:30:09.295Z,95204.66
2022-11-05T06:32:37.542Z,95219.50
2022-11-05T06:35:07.559Z,95215.19
2022-11-05T06:37:35.870Z,95214.00
2022-11-05T06:40:04.266Z,95203.28
2022-11-05T06:42:32.571Z,95202.53
2022-11-05T06:45:00.793Z,95208.03
2022-11-05T06:47:29.155Z,95196.28
2022-11-05T06:49:57.560Z,95193.41
2022-11-05T06:52:31.339Z,95188.19
2022-11-05T06:54:59.742Z,95188.53
2022-11-05T06:57:28.114Z,95166.75
2022-11-05T07:00:01.376Z,95183.28
2022-11-05T07:02:31.644Z,95161.31
2022-11-05T07:04:59.946Z,95172.66
2022-11-05T07:07:29.614Z,95172.19
2022-11-05T07:09:57.810Z,95171.97
2022-11-05T07:12:26.118Z,95169.41
2022-11-05T07:14:54.361Z,95167.81
2022-11-05T07:17:23.763Z,95143.16
2022-11-05T07:19:52.023Z,95161.34
2022-11-05T07:22:20.227Z,95160.47
2022-11-05T07:24:50.439Z,95155.19
2022-11-05T07:27:18.793Z,95160.31
2022-11-05T07:29:46.985Z,95159.00
2022-11-05T07:32:15.282Z,95160.78
2022-11-05T07:34:43.639Z,95136.28
2022-11-05T07:37:11.818Z,95142.50
2022-11-05T07:39:40.098Z,95139.16
2022-11-05T07:42:13.451Z,95132.94
2022-11-05T07:44:41.726Z,95133.28
2022-11-05T07:47:10.012Z,95132.63
2022-11-05T07:49:38.207Z,95131.44
2022-11-05T07:52:06.703Z,95127.41
2022-11-05T07:54:35.024Z,95130.97
2022-11-05T07:57:03.317Z,95115.28
2022-11-05T07:59:33.144Z,95115.16
2022-11-05T08:02:01.597Z,95100.34
2022-11-05T08:04:30.036Z,95093.25
2022-11-05T08:06:58.324Z,95114.94
2022-11-05T08:09:26.628Z,95111.78
2022-11-05T08:11:59.838Z,95104.53
2022-11-05T08:14:32.233Z,95093.19
2022-11-05T08:17:00.474Z,95121.09
2022-11-05T08:19:28.715Z,95092.25
2022-11-05T08:21:57.003Z,95097.53
2022-11-05T08:24:25.308Z,95106.78
2022-11-05T08:26:54.601Z,95108.00
2022-11-05T08:29:22.864Z,95098.09
2022-11-05T08:31:52.549Z,95101.28
2022-11-05T08:34:20.877Z,95092.25
2022-11-05T08:36:49.228Z,95096.94
2022-11-05T08:39:19.069Z,95080.09
2022-11-05T08:41:47.324Z,95091.69
2022-11-05T08:44:15.611Z,95083.34
2022-11-05T08:46:43.891Z,95062.00
2022-11-05T08:49:13.612Z,95075.09
2022-11-05T08:51:41.858Z,95074.59
2022-11-05T08:54:10.320Z,95078.13
2022-11-05T08:56:38.613Z,95045.09
2022-11-05T08:59:07.408Z,95070.03
2022-11-05T09:01:36.046Z,95067.94
2022-11-05T09:04:04.819Z,95064.72
2022-11-05T09:06:34.491Z,95065.53
2022-11-05T09:09:02.823Z,95052.56
2022-11-05T09:11:56.918Z,95059.19
2022-11-05T09:14:19.292Z,95055.69
2022-11-05T09:16:47.622Z,95053.47
2022-11-05T09:19:15.831Z,95036.22
2022-11-05T09:21:45.759Z,95050.06
2022-11-05T09:24:14.011Z,95041.03
2022-11-05T09:26:42.292Z,95037.13
2022-11-05T09:29:14.349Z,95039.56
2022-11-05T09:31:43.298Z,95007.69
2022-11-05T09:34:11.551Z,95027.22
2022-11-05T09:36:39.867Z,95028.66
2022-11-05T09:39:09.747Z,95020.56
2022-11-05T09:41:40.942Z,95022.81
2022-11-05T09:44:14.943Z,95016.88
2022-11-05T09:46:47.284Z,94997.28
2022-11-05T09:49:25.782Z,94955.22
2022-11-05T09:51:55.539Z,95012.91
2022-11-05T09:54:29.558Z,95001.84
2022-11-05T09:56:58.085Z,94998.63
2022-11-05T09:59:44.499Z,94978.47
2022-11-05T10:02:20.744Z,94993.28
2022-11-05T10:05:02.400Z,94996.84
2022-11-05T10:07:41.624Z,94989.06
2022-11-05T10:10:28.003Z,94860.91
2022-11-05T10:13:00.601Z,94977.38
2022-11-05T10:15:32.021Z,94975.28
2022-11-05T10:18:04.832Z,94966.72
2022-11-05T10:20:35.270Z,94956.09
2022-11-05T10:23:11.152Z,94970.25
2022-11-05T10:25:44.631Z,94948.31
2022-11-05T10:28:17.937Z,94951.22
2022-11-05T10:30:48.096Z,94946.53
2022-11-05T10:33:26.502Z,94943.38
2022-11-05T10:35:59.131Z,94934.75
2022-11-05T10:38:27.413Z,94937.69
2022-11-05T10:41:10.881Z,94923.56
2022-11-05T10:43:46.023Z,94932.81
2022-11-05T10:46:26.950Z,94928.53
2022-11-05T10:49:07.919Z,94920.34
2022-11-05T10:51:36.526Z,94917.44
2022-11-05T10:54:12.517Z,94912.78
2022-11-05T10:56:43.035Z,94892.63
2022-11-05T10:59:23.164Z,94895.25
2022-11-05T11:01:58.331Z,94890.16
2022-11-05T11:04:32.356Z,94879.75
2022-11-05T11:07:05.483Z,94878.81
2022-11-05T11:09:37.033Z,94869.69
2022-11-05T11:12:15.271Z,94880.06
2022-11-05T11:14:44.162Z,94871.97
2022-11-05T11:17:27.196Z,94865.47
2022-11-05T11:20:22.148Z,94850.47
2022-11-05T11:23:13.299Z,94861.66
2022-11-05T11:25:48.995Z,94853.16
2022-11-05T11:28:24.082Z,94842.56
2022-11-05T11:30:57.019Z,94846.66
2022-11-05T11:33:28.951Z,94838.22
2022-11-05T11:35:57.969Z,94841.53
2022-11-05T11:38:30.740Z,94839.47
2022-11-05T11:41:09.123Z,94834.91
2022-11-05T11:43:43.803Z,94823.22
2022-11-05T11:46:16.192Z,94822.72
2022-11-05T11:48:47.696Z,94825.50
2022-11-05T11:51:23.380Z,94829.94
2022-11-05T11:53:51.608Z,94825.91
2022-11-05T11:56:21.823Z,94815.72
2022-11-05T11:58:52.806Z,94779.38
2022-11-05T12:02:07.534Z,94818.47
2022-11-05T12:05:14.222Z,94817.63
2022-11-05T12:07:52.996Z,94720.63
2022-11-05T12:10:35.056Z,94817.03
2022-11-05T12:13:28.435Z,94810.22
2022-11-05T12:16:03.133Z,94824.16
2022-11-05T12:18:41.232Z,94816.69
2022-11-05T12:21:34.662Z,94815.72
2022-11-05T12:24:31.848Z,94814.47
2022-11-05T12:27:11.177Z,94804.38
2022-11-05T12:29:52.732Z,94813.63
2022-11-05T12:32:48.822Z,94803.81
2022-11-05T12:35:31.895Z,94825.06
2022-11-05T12:38:10.844Z,94814.03
2022-11-05T12:40:49.800Z,94820.31
2022-11-05T12:43:27.398Z,94818.53
2022-11-05T12:46:03.873Z,94806.19
2022-11-05T12:48:49.742Z,94813.91
2022-11-05T12:51:30.684Z,94819.53
2022-11-05T12:54:12.627Z,94826.88
2022-11-05T12:56:44.562Z,94828.34
2022-11-05T12:59:20.716Z,94801.84
2022-11-05T13:01:55.689Z,94817.25
2022-11-05T13:04:35.268Z,94818.00
2022-11-05T13:07:09.183Z,94814.31
2022-11-05T13:09:43.357Z,94817.16
2022-11-05T13:12:14.867Z,94820.03
2022-11-05T13:14:49.324Z,94813.84
2022-11-05T13:17:20.883Z,94813.13
2022-11-05T13:20:00.931Z,94818.16
2022-11-05T13:22:36.980Z,94823.47
2022-11-05T13:25:13.674Z,94818.28
2022-11-05T13:27:51.760Z,94816.72
2022-11-05T13:30:22.711Z,94821.03
2022-11-05T13:32:58.060Z,94819.44
2022-11-05T13:35:31.188Z,94750.66
2022-11-05T13:38:27.962Z,94829.63
2022-11-05T13:41:13.625Z,94805.56
2022-11-05T13:44:21.978Z,94832.13
2022-11-05T13:47:19.824Z,94816.84
2022-11-05T13:50:35.435Z,94834.66
2022-11-05T13:53:31.403Z,94840.56
2022-11-05T13:56:12.591Z,94821.69
2022-11-05T13:58:59.522Z,94831.91
2022-11-05T14:01:44.027Z,94827.31
2022-11-05T14:04:23.642Z,94828.84
2022-11-05T14:06:52.115Z,94810.63
2022-11-05T14:09:27.601Z,94838.25
2022-11-05T14:11:57.909Z,94833.91
2022-11-05T14:14:29.302Z,94835.25
2022-11-05T14:17:15.975Z,94841.91
2022-11-05T14:20:10.597Z,94843.75
2022-11-05T14:22:41.981Z,94832.44
2022-11-05T14:26:02.057Z,94848.06
2022-11-05T14:28:44.387Z,94838.28
2022-11-05T14:32:07.120Z,94825.38
2022-11-05T14:34:45.257Z,94852.00
2022-11-05T14:37:39.553Z,94844.06
2022-11-05T14:40:37.659Z,94856.22
2022-11-05T14:43:10.356Z,94837.06
2022-11-05T14:45:42.322Z,94855.47
2022-11-05T14:48:37.649Z,94842.28
2022-11-05T14:51:27.908Z,94819.91
2022-11-05T14:54:04.184Z,94847.50
2022-11-05T14:56:43.987Z,94814.25
2022-11-05T14:59:51.985Z,94840.00
2022-11-05T15:02:26.007Z,94829.66
2022-11-05T15:05:43.147Z,94845.78
2022-11-05T15:08:32.842Z,94839.50
2022-11-05T15:11:12.691Z,94846.59
2022-11-05T15:13:50.883Z,94792.25
2022-11-05T15:16:25.037Z,94845.47
2022-11-05T15:18:56.915Z,94800.19
2022-11-05T15:21:26.698Z,94850.91
2022-11-05T15:23:57.608Z,94838.56
2022-11-05T15:26:30.628Z,94782.56
2022-11-05T15:28:59.122Z,94859.53
2022-11-05T15:31:34.933Z,94862.63
2022-11-05T15:34:21.722Z,94850.19
2022-11-05T15:36:53.615Z,94855.66
2022-11-05T15:39:30.846Z,94819.13
2022-11-05T15:42:06.072Z,94869.56
2022-11-05T15:44:39.318Z,94871.50
2022-11-05T15:47:22.857Z,94863.13
2022-11-05T15:49:56.102Z,94870.03
2022-11-05T15:52:26.305Z,94870.72
2022-11-05T15:55:19.029Z,94879.97
2022-11-05T15:57:51.269Z,94874.81
2022-11-05T16:00:22.674Z,94816.25
2022-11-05T16:02:56.098Z,94876.56
2022-11-05T16:05:28.169Z,94873.91
2022-11-05T16:07:59.517Z,94876.31
2022-11-05T16:10:31.536Z,94880.88
2022-11-05T16:13:24.122Z,94882.50
2022-11-05T16:15:57.053Z,94870.88
2022-11-05T16:18:30.779Z,94890.28
2022-11-05T16:21:08.544Z,94887.06
2022-11-05T16:23:45.879Z,94900.13
2022-11-05T16:27:00.578Z,94904.06
2022-11-05T16:29:25.223Z,94909.03
2022-11-05T16:31:55.327Z,94913.63
2022-11-05T16:34:28.807Z,94905.34
2022-11-05T16:37:00.647Z,94917.78
2022-11-05T16:39:29.103Z,94907.97
2022-11-05T16:41:57.939Z,94913.78
2022-11-05T16:44:28.040Z,94862.53
2022-11-05T16:46:56.852Z,94833.75
2022-11-05T16:49:25.124Z,94917.53
2022-11-05T16:51:53.963Z,94923.22
2022-11-05T16:54:23.679Z,94915.81
2022-11-05T16:56:52.010Z,94917.16
2022-11-05T16:59:20.453Z,94926.78
2022-11-05T17:01:53.113Z,94924.97
2022-11-05T17:04:24.005Z,94931.38
2022-11-05T17:06:52.563Z,94948.66
2022-11-05T17:09:31.984Z,94888.88
2022-11-05T17:12:02.588Z,94931.34
2022-11-05T17:14:30.978Z,94947.72
2022-11-05T17:17:01.893Z,94949.03
2022-11-05T17:19:30.341Z,94942.88
2022-11-05T17:21:58.650Z,94940.69
2022-11-05T17:24:28.424Z,94938.72
2022-11-05T17:26:56.778Z,94938.69
2022-11-05T17:29:25.161Z,94917.72
2022-11-05T17:31:53.492Z,94945.84
2022-11-05T17:34:21.767Z,94929.91
2022-11-05T17:36:50.105Z,94942.59
2022-11-05T17:39:18.475Z,94942.97
2022-11-05T17:41:48.170Z,94940.59
2022-11-05T17:44:16.430Z,94940.16
2022-11-05T17:46:44.727Z,94927.72
2022-11-05T17:49:12.978Z,94944.69
2022-11-05T17:51:41.174Z,94938.19
2022-11-05T17:54:09.531Z,94942.28
2022-11-05T17:56:44.439Z,94945.00
2022-11-05T17:59:14.829Z,94945.41
2022-11-05T18:01:43.825Z,94945.25
2022-11-05T18:04:12.243Z,94948.75
2022-11-05T18:06:41.618Z,94950.34
2022-11-05T18:09:11.417Z,94952.63
2022-11-05T18:11:40.924Z,94961.84
2022-11-05T18:14:09.386Z,94966.03
2022-11-05T18:16:39.508Z,94956.09
2022-11-05T18:19:07.868Z,94879.00
2022-11-05T18:21:36.286Z,94956.09
2022-11-05T18:24:05.660Z,94948.13
2022-11-05T18:26:34.195Z,94946.81
2022-11-05T18:29:03.216Z,94951.03
2022-11-05T18:31:31.592Z,94948.88
2022-11-05T18:34:01.572Z,94893.09
2022-11-05T18:36:31.432Z,94963.56
2022-11-05T18:39:00.648Z,94952.69
2022-11-05T18:41:29.462Z,94949.91
2022-11-05T18:44:00.208Z,94942.06
2022-11-05T18:46:55.963Z,94954.88
2022-11-05T18:49:18.470Z,94954.28
2022-11-05T18:51:47.208Z,94961.72
2022-11-05T18:54:15.599Z,94963.56
2022-11-05T18:56:46.141Z,94969.56
2022-11-05T18:59:35.575Z,94970.34
2022-11-05T19:02:04.267Z,94972.72
2022-11-05T19:04:34.174Z,94979.94
2022-11-05T19:07:05.092Z,94976.31
2022-11-05T19:09:34.764Z,94980.50
2022-11-05T19:12:03.124Z,94977.09
2022-11-05T19:14:31.388Z,94969.75
2022-11-05T19:17:00.318Z,94967.53
2022-11-05T19:19:28.946Z,94974.91
2022-11-05T19:21:58.620Z,94981.00
2022-11-05T19:24:26.959Z,94981.53
2022-11-05T19:26:55.196Z,94988.13
2022-11-05T19:29:23.514Z,94984.38
2022-11-05T19:31:51.791Z,94981.72
2022-11-05T19:34:20.728Z,94981.06
2022-11-05T19:36:49.040Z,94981.72
2022-11-05T19:39:18.709Z,94980.78
2022-11-05T19:41:47.929Z,94990.19
2022-11-05T19:44:16.187Z,94989.91
2022-11-05T19:46:45.201Z,94989.91
2022-11-05T19:49:13.806Z,94991.59
2022-11-05T19:51:42.248Z,94986.13
2022-11-05T19:54:11.006Z,94984.53
2022-11-05T19:56:40.636Z,94984.66
2022-11-05T19:59:08.958Z,94984.84
2022-11-05T20:01:37.346Z,94951.16
2022-11-05T20:04:06.344Z,94985.50
2022-11-05T20:06:38.505Z,94994.91
2022-11-05T20:09:25.787Z,94993.25
2022-11-05T20:11:57.235Z,95008.09
2022-11-05T20:14:27.111Z,95004.63
2022-11-05T20:16:55.658Z,94970.66
2022-11-05T20:19:24.403Z,94998.69
2022-11-05T20:21:52.932Z,95005.00
2022-11-05T20:24:25.140Z,94999.66
2022-11-05T20:26:56.093Z,95003.72
2022-11-05T20:29:30.614Z,95000.41
2022-11-05T20:32:05.102Z,95012.84
2022-11-05T20:34:35.070Z,95007.69
2022-11-05T20:37:03.363Z,95005.31
2022-11-05T20:39:31.763Z,94999.63
2022-11-05T20:42:01.734Z,95012.38
2022-11-05T20:44:30.481Z,95009.75
2022-11-05T20:47:01.928Z,95009.25
2022-11-05T20:49:30.771Z,95004.19
2022-11-05T20:51:59.439Z,94998.03
2022-11-05T20:54:27.992Z,95010.31
2022-11-05T20:56:56.572Z,94991.56
2022-11-05T20:59:26.632Z,94975.88
2022-11-05T21:01:54.943Z,95019.19
2022-11-05T21:04:24.428Z,95004.06
2022-11-05T21:06:53.423Z,95005.16
2022-11-05T21:09:21.694Z,95000.88
2022-11-05T21:12:07.242Z,94999.28
2022-11-05T21:14:37.059Z,94998.50
2022-11-05T21:17:05.978Z,95003.06
2022-11-05T21:19:35.360Z,94983.38
2022-11-05T21:22:04.653Z,94979.44
2022-11-05T21:24:33.666Z,94996.13
2022-11-05T21:27:01.962Z,94986.53
2022-11-05T21:29:30.174Z,94992.41
2022-11-05T21:31:59.867Z,94990.81
2022-11-05T21:34:28.973Z,94990.19
2022-11-05T21:36:57.245Z,94992.72
2022-11-05T21:39:25.775Z,95006.09
2022-11-05T21:41:54.026Z,94979.53
2022-11-05T21:44:22.337Z,95002.50
2022-11-05T21:46:52.551Z,95009.41
2022-11-05T21:49:22.249Z,95002.66
2022-11-05T21:52:07.945Z,95006.13
2022-11-05T21:54:53.531Z,94998.53
2022-11-05T21:57:39.992Z,94987.22
2022-11-05T22:00:11.541Z,94994.63
2022-11-05T22:02:40.239Z,94990.03
2022-11-05T22:05:10.879Z,94991.94
2022-11-05T22:07:40.398Z,94984.53
2022-11-05T22:10:15.883Z,94984.84
2022-11-05T22:12:45.228Z,94988.00
2022-11-05T22:15:14.508Z,94991.16
2022-11-05T22:17:46.908Z,94988.97
2022-11-05T22:20:17.971Z,94990.63
2022-11-05T22:22:46.353Z,94997.75
2022-11-05T22:25:15.646Z,94970.22
2022-11-05T22:27:44.423Z,94989.25
2022-11-05T22:30:14.487Z,94970.06
2022-11-05T22:32:42.724Z,94985.56
2022-11-05T22:35:11.702Z,94980.06
2022-11-05T22:37:41.431Z,94985.78
2022-11-05T22:40:10.599Z,94980.97
2022-11-05T22:42:38.863Z,94984.97
2022-11-05T22:45:08.091Z,94974.41
2022-11-05T22:47:36.408Z,94986.09
2022-11-05T22:50:06.069Z,94963.91
2022-11-05T22:52:34.433Z,94983.75
2022-11-05T22:55:06.325Z,94977.94
2022-11-05T22:57:34.638Z,94977.28
2022-11-05T23:00:02.929Z,94975.53
2022-11-05T23:02:31.368Z,94970.50
2022-11-05T23:05:01.673Z,94969.84
2022-11-05T23:07:47.227Z,94966.91
2022-11-05T23:10:34.245Z,94969.88
2022-11-05T23:13:02.633Z,94962.13
2022-11-05T23:15:48.418Z,94967.03
2022-11-05T23:18:33.771Z,94968.13
2022-11-05T23:21:22.900Z,94982.81
2022-11-05T23:24:06.380Z,94957.81
2022-11-05T23:26:54.122Z,94974.00
2022-11-05T23:29:24.074Z,94967.81
2022-11-05T23:32:09.847Z,94965.19
2022-11-05T23:34:39.006Z,94968.16
2022-11-05T23:37:25.235Z,94970.38
2022-11-05T23:39:53.486Z,94967.84
2022-11-05T23:42:40.870Z,94966.09
2022-11-05T23:45:28.289Z,94958.06
2022-11-05T23:48:13.642Z,94896.59
2022-11-05T23:50:42.630Z,94952.75
2022-11-05T23:53:10.889Z,94966.56
2022-11-05T23:55:39.633Z,94968.31
2022-11-05T23:58:10.174Z,94961.09
